createdAt,value
2018-01-29T00:02:09.412Z,4.57
2018-01-29T00:04:36.857Z,4.50
2018-01-29T00:07:05.097Z,3.80
2018-01-29T00:09:32.542Z,4.23
2018-01-29T00:11:59.992Z,3.47
2018-01-29T00:14:28.208Z,3.40
2018-01-29T00:16:56.420Z,2.83
2018-01-29T00:19:23.878Z,3.13
2018-01-29T00:21:51.323Z,3.13
2018-01-29T00:24:18.779Z,2.80
2018-01-29T00:26:46.221Z,3.10
2018-01-29T00:29:14.440Z,3.80
2018-01-29T00:31:41.876Z,3.23
2018-01-29T00:34:09.336Z,3.50
2018-01-29T00:36:36.796Z,2.93
2018-01-29T00:39:04.236Z,2.87
2018-01-29T00:41:31.688Z,3.10
2018-01-29T00:43:59.161Z,3.60
2018-01-29T00:46:26.618Z,3.50
2018-01-29T00:48:54.056Z,3.60
2018-01-29T00:51:21.513Z,4.03
2018-01-29T00:53:48.960Z,2.90
2018-01-29T00:56:17.173Z,3.33
2018-01-29T00:58:44.621Z,2.40
2018-01-29T01:01:12.073Z,3.07
2018-01-29T01:03:39.520Z,2.90
2018-01-29T01:06:06.968Z,4.80
2018-01-29T01:08:34.417Z,5.30
2018-01-29T01:11:02.633Z,4.80
2018-01-29T01:13:30.073Z,4.43
2018-01-29T01:15:57.529Z,4.03
2018-01-29T01:18:24.973Z,3.63
2018-01-29T01:20:52.429Z,5.47
2018-01-29T01:23:19.881Z,3.93
2018-01-29T01:25:47.332Z,4.43
2018-01-29T01:28:14.792Z,4.40
2018-01-29T01:30:43.009Z,4.30
2018-01-29T01:33:10.456Z,4.23
2018-01-29T01:35:37.912Z,3.87
2018-01-29T01:38:05.365Z,3.80
2018-01-29T01:40:32.812Z,3.70
2018-01-29T01:43:00.256Z,4.10
2018-01-29T01:45:27.711Z,3.33
2018-01-29T01:47:55.166Z,3.20
2018-01-29T01:50:22.610Z,3.20
2018-01-29T01:52:50.822Z,2.60
2018-01-29T01:55:18.272Z,3.10
2018-01-29T01:57:45.722Z,2.70
2018-01-29T02:00:13.160Z,2.43
2018-01-29T02:02:40.612Z,3.00
2018-01-29T02:05:08.829Z,2.63
2018-01-29T02:07:36.284Z,2.27
2018-01-29T02:10:03.729Z,2.30
2018-01-29T02:12:31.181Z,3.20
2018-01-29T02:14:58.624Z,2.37
2018-01-29T02:17:26.078Z,2.20
2018-01-29T02:19:53.520Z,1.80
2018-01-29T02:22:21.756Z,1.80
2018-01-29T02:24:49.202Z,2.13
2018-01-29T02:27:17.421Z,1.63
2018-01-29T02:29:45.628Z,1.90
2018-01-29T02:32:13.106Z,2.50
2018-01-29T02:34:40.546Z,2.67
2018-01-29T02:37:07.999Z,2.50
2018-01-29T02:39:35.448Z,2.23
2018-01-29T02:42:02.913Z,2.23
2018-01-29T02:44:30.367Z,2.97
2018-01-29T02:46:57.812Z,2.73
2018-01-29T02:49:25.261Z,1.97
2018-01-29T02:51:52.716Z,2.03
2018-01-29T02:54:20.932Z,2.03
2018-01-29T02:56:48.385Z,1.90
2018-01-29T02:59:15.833Z,2.50
2018-01-29T03:01:43.287Z,2.10
2018-01-29T03:04:10.733Z,2.23
2018-01-29T03:06:38.198Z,2.20
2018-01-29T03:09:05.632Z,1.77
2018-01-29T03:11:33.076Z,1.50
2018-01-29T03:14:01.297Z,1.53
2018-01-29T03:16:28.744Z,1.97
2018-01-29T03:18:56.201Z,1.70
2018-01-29T03:21:23.641Z,1.60
2018-01-29T03:23:51.119Z,1.43
2018-01-29T03:26:18.564Z,1.73
2018-01-29T03:28:46.012Z,2.30
2018-01-29T03:31:13.460Z,1.83
2018-01-29T03:33:40.905Z,1.70
2018-01-29T03:36:09.117Z,2.33
2018-01-29T03:38:36.568Z,3.67
2018-01-29T03:41:04.021Z,2.20
2018-01-29T03:43:31.479Z,3.00
2018-01-29T03:45:58.934Z,3.90
2018-01-29T03:48:26.381Z,4.10
2018-01-29T03:50:53.833Z,3.90
2018-01-29T03:53:21.281Z,4.10
2018-01-29T03:55:48.734Z,4.70
2018-01-29T03:58:16.956Z,3.83
2018-01-29T04:00:44.424Z,3.83
2018-01-29T04:03:11.865Z,3.20
2018-01-29T04:05:39.317Z,3.30
2018-01-29T04:08:06.768Z,2.83
2018-01-29T04:10:34.216Z,2.37
2018-01-29T04:13:01.676Z,1.97
2018-01-29T04:15:29.130Z,2.07
2018-01-29T04:17:56.572Z,2.30
2018-01-29T04:20:24.024Z,3.10
2018-01-29T04:22:51.473Z,2.93
2018-01-29T04:25:19.691Z,3.07
2018-01-29T04:27:47.137Z,1.90
2018-01-29T04:30:14.604Z,2.60
2018-01-29T04:32:42.045Z,2.70
2018-01-29T04:35:09.504Z,2.60
2018-01-29T04:37:36.959Z,2.60
2018-01-29T04:40:04.416Z,2.93
2018-01-29T04:42:31.869Z,2.47
2018-01-29T04:44:59.324Z,2.10
2018-01-29T04:47:26.772Z,1.93
2018-01-29T04:49:54.234Z,2.30
2018-01-29T04:52:21.673Z,2.70
2018-01-29T04:54:49.137Z,2.60
2018-01-29T04:57:16.577Z,2.70
2018-01-29T04:59:44.806Z,2.67
2018-01-29T05:02:12.258Z,2.67
2018-01-29T05:04:39.718Z,2.83
2018-01-29T05:07:07.172Z,2.30
2018-01-29T05:09:34.817Z,1.80
2018-01-29T05:12:02.270Z,1.50
2018-01-29T05:14:29.726Z,2.17
2018-01-29T05:16:57.164Z,1.50
2018-01-29T05:19:24.620Z,5.27
2018-01-29T05:21:52.233Z,3.50
2018-01-29T05:24:19.681Z,2.37
2018-01-29T05:26:47.130Z,2.13
2018-01-29T05:29:14.588Z,1.87
2018-01-29T05:31:42.037Z,1.50
2018-01-29T05:34:09.480Z,2.20
2018-01-29T05:39:35.517Z,1.70
2018-01-29T05:42:02.958Z,1.80
2018-01-29T05:44:30.434Z,1.50
2018-01-29T05:46:57.951Z,1.60
2018-01-29T05:49:26.173Z,1.40
2018-01-29T05:51:53.624Z,1.70
2018-01-29T05:54:21.079Z,1.53
2018-01-29T05:56:48.537Z,1.90
2018-01-29T05:59:16.001Z,1.33
2018-01-29T06:01:43.461Z,1.63
2018-01-29T06:04:10.905Z,1.50
2018-01-29T06:06:38.365Z,1.83
2018-01-29T06:09:05.816Z,2.03
2018-01-29T06:11:33.481Z,1.90
2018-01-29T06:14:00.908Z,2.17
2018-01-29T06:16:29.129Z,1.67
2018-01-29T06:18:56.572Z,1.97
2018-01-29T06:21:24.025Z,1.87
2018-01-29T06:23:51.481Z,1.50
2018-01-29T06:26:18.936Z,1.60
2018-01-29T06:28:46.380Z,2.47
2018-01-29T06:31:13.833Z,5.43
2018-01-29T06:33:41.289Z,5.80
2018-01-29T06:36:08.769Z,5.20
2018-01-29T06:38:36.218Z,3.77
2018-01-29T06:41:03.677Z,2.50
2018-01-29T06:43:31.129Z,2.50
2018-01-29T06:45:58.577Z,1.63
2018-01-29T06:48:26.120Z,1.83
2018-01-29T06:50:54.330Z,1.80
2018-01-29T06:53:21.772Z,1.90
2018-01-29T06:55:49.228Z,2.23
2018-01-29T06:58:16.689Z,1.70
2018-01-29T07:00:44.249Z,1.93
2018-01-29T07:03:11.690Z,1.60
2018-01-29T07:05:39.137Z,1.90
2018-01-29T07:08:07.353Z,1.77
2018-01-29T07:10:34.804Z,1.93
2018-01-29T07:13:02.283Z,2.23
2018-01-29T07:15:29.741Z,1.73
2018-01-29T07:17:57.177Z,1.43
2018-01-29T07:20:24.624Z,2.10
2018-01-29T07:22:52.076Z,2.73
2018-01-29T07:25:19.549Z,3.23
2018-01-29T07:27:46.986Z,4.10
2018-01-29T07:30:14.452Z,3.30
2018-01-29T07:32:41.908Z,3.30
2018-01-29T07:35:09.347Z,3.50
2018-01-29T07:37:36.808Z,2.23
2018-01-29T07:40:04.253Z,2.53
2018-01-29T07:42:31.718Z,2.40
2018-01-29T07:44:59.165Z,2.50
2018-01-29T07:47:26.622Z,1.80
2018-01-29T07:49:54.074Z,1.97
2018-01-29T07:52:22.314Z,2.50
2018-01-29T07:54:49.763Z,1.77
2018-01-29T07:57:17.259Z,1.60
2018-01-29T07:59:45.475Z,1.40
2018-01-29T08:02:13.062Z,1.30
2018-01-29T08:04:40.514Z,1.80
2018-01-29T08:07:07.985Z,1.30
2018-01-29T08:09:35.442Z,1.27
2018-01-29T08:12:02.890Z,1.63
2018-01-29T08:14:30.463Z,1.57
2018-01-29T08:16:57.943Z,1.30
2018-01-29T08:19:25.430Z,1.20
2018-01-29T08:21:52.890Z,1.40
2018-01-29T08:24:20.341Z,1.63
2018-01-29T08:26:47.803Z,1.43
2018-01-29T08:29:15.254Z,1.20
2018-01-29T08:31:42.709Z,1.50
2018-01-29T08:34:10.170Z,1.17
2018-01-29T08:36:37.622Z,2.80
2018-01-29T08:39:05.081Z,4.13
2018-01-29T08:41:32.532Z,1.83
2018-01-29T08:44:00.040Z,1.30
2018-01-29T08:46:27.485Z,1.30
2018-01-29T08:48:54.946Z,2.90
2018-01-29T08:51:22.399Z,2.77
2018-01-29T08:53:49.863Z,1.33
2018-01-29T08:56:17.438Z,1.70
2018-01-29T08:58:45.665Z,1.50
2018-01-29T09:01:13.118Z,1.20
2018-01-29T09:03:40.577Z,1.10
2018-01-29T09:06:08.025Z,1.57
2018-01-29T09:08:35.486Z,1.90
2018-01-29T09:11:02.934Z,1.20
2018-01-29T09:13:30.393Z,1.20
2018-01-29T09:15:57.846Z,1.70
2018-01-29T09:18:25.301Z,1.80
2018-01-29T09:20:52.882Z,1.13
2018-01-29T09:23:20.342Z,1.50
2018-01-29T09:25:47.795Z,1.50
2018-01-29T09:28:15.250Z,1.20
2018-01-29T09:30:43.474Z,1.40
2018-01-29T09:33:11.691Z,1.20
2018-01-29T09:35:39.154Z,1.53
2018-01-29T09:38:06.607Z,1.37
2018-01-29T09:40:34.078Z,1.00
2018-01-29T09:43:01.533Z,0.80
2018-01-29T09:45:29.003Z,1.00
2018-01-29T09:47:56.462Z,0.60
2018-01-29T09:50:23.927Z,0.93
2018-01-29T09:52:51.382Z,1.23
2018-01-29T09:55:18.850Z,1.03
2018-01-29T09:57:47.126Z,0.97
2018-01-29T10:00:14.582Z,0.73
2018-01-29T10:02:42.811Z,0.87
2018-01-29T10:05:10.291Z,0.80
2018-01-29T10:07:37.733Z,0.70
2018-01-29T10:10:05.189Z,1.00
2018-01-29T10:12:32.694Z,0.77
2018-01-29T10:15:00.106Z,0.80
2018-01-29T10:17:27.562Z,0.80
2018-01-29T10:19:55.019Z,1.20
2018-01-29T10:22:22.473Z,1.10
2018-01-29T10:24:49.967Z,1.57
2018-01-29T10:27:17.414Z,1.20
2018-01-29T10:29:44.869Z,1.70
2018-01-29T10:32:12.331Z,1.67
2018-01-29T10:34:39.777Z,1.20
2018-01-29T10:37:07.246Z,2.40
2018-01-29T10:39:34.688Z,1.10
2018-01-29T10:42:02.162Z,1.60
2018-01-29T10:44:29.609Z,1.07
2018-01-29T10:46:57.157Z,1.00
2018-01-29T10:49:24.669Z,0.63
2018-01-29T10:51:52.119Z,0.90
2018-01-29T10:54:19.568Z,0.70
2018-01-29T10:56:47.032Z,1.13
2018-01-29T10:59:14.534Z,1.00
2018-01-29T11:01:47.557Z,1.10
2018-01-29T11:04:15.783Z,1.10
2018-01-29T11:06:43.234Z,1.57
2018-01-29T11:09:10.789Z,1.13
2018-01-29T11:11:38.258Z,0.80
2018-01-29T11:14:05.705Z,1.10
2018-01-29T11:16:33.175Z,1.10
2018-01-29T11:19:00.620Z,0.57
2018-01-29T11:21:28.168Z,1.00
2018-01-29T11:23:55.605Z,1.00
2018-01-29T11:26:23.078Z,0.90
2018-01-29T11:28:50.541Z,1.00
2018-01-29T11:31:17.999Z,0.80
2018-01-29T11:33:45.453Z,0.67
2018-01-29T11:36:12.905Z,0.60
2018-01-29T11:38:40.406Z,0.90
2018-01-29T11:41:07.853Z,0.90
2018-01-29T11:43:35.313Z,0.93
2018-01-29T11:46:02.765Z,1.77
2018-01-29T11:48:30.225Z,1.77
2018-01-29T11:50:57.803Z,2.70
2018-01-29T11:53:25.249Z,2.43
2018-01-29T11:55:52.701Z,1.90
2018-01-29T11:58:20.161Z,2.30
2018-01-29T12:00:47.608Z,1.50
2018-01-29T12:03:15.237Z,1.90
2018-01-29T12:05:42.692Z,1.20
2018-01-29T12:08:10.155Z,1.30
2018-01-29T12:10:37.611Z,1.00
2018-01-29T12:13:05.061Z,0.87
2018-01-29T12:15:32.559Z,0.60
2018-01-29T12:18:00.029Z,0.70
2018-01-29T12:20:27.477Z,0.60
2018-01-29T12:22:54.938Z,0.70
2018-01-29T12:25:22.389Z,0.80
2018-01-29T12:27:49.845Z,0.60
2018-01-29T12:30:17.292Z,0.63
2018-01-29T12:32:44.756Z,1.10
2018-01-29T12:35:12.202Z,1.50
2018-01-29T12:37:39.648Z,1.40
2018-01-29T12:40:07.109Z,0.90
2018-01-29T12:42:34.561Z,0.67
2018-01-29T12:45:02.018Z,1.13
2018-01-29T12:47:29.485Z,1.03
2018-01-29T12:49:57.713Z,1.00
2018-01-29T12:52:25.165Z,0.70
2018-01-29T12:54:52.625Z,0.80
2018-01-29T12:57:20.137Z,0.90
2018-01-29T12:59:47.597Z,0.60
2018-01-29T13:02:15.054Z,0.67
2018-01-29T13:04:42.504Z,0.83
2018-01-29T13:07:09.962Z,0.77
2018-01-29T13:09:37.417Z,0.77
2018-01-29T13:12:04.877Z,0.60
2018-01-29T13:14:32.328Z,0.70
2018-01-29T13:16:59.781Z,0.70
2018-01-29T13:19:27.238Z,0.70
2018-01-29T13:21:54.717Z,0.93
2018-01-29T13:24:22.182Z,0.83
2018-01-29T13:26:50.399Z,0.60
2018-01-29T13:29:17.861Z,1.03
2018-01-29T13:31:45.310Z,0.80
2018-01-29T13:34:12.769Z,0.70
2018-01-29T13:36:40.222Z,0.90
2018-01-29T13:39:07.674Z,0.60
2018-01-29T13:41:35.130Z,0.70
2018-01-29T13:44:02.582Z,0.60
2018-01-29T13:46:30.142Z,0.70
2018-01-29T13:48:57.593Z,0.70
2018-01-29T13:51:25.050Z,0.50
2018-01-29T13:53:52.500Z,0.50
2018-01-29T13:56:19.953Z,0.60
2018-01-29T13:58:47.404Z,0.60
2018-01-29T14:01:15.626Z,0.60
2018-01-29T14:03:43.069Z,0.40
2018-01-29T14:06:10.527Z,0.63
2018-01-29T14:08:37.972Z,0.47
2018-01-29T14:11:05.492Z,1.10
2018-01-29T14:13:33.710Z,0.70
2018-01-29T14:16:01.170Z,0.53
2018-01-29T14:18:28.618Z,0.73
2018-01-29T14:20:56.081Z,0.80
2018-01-29T14:23:23.573Z,0.70
2018-01-29T14:25:51.026Z,0.90
2018-01-29T14:28:18.473Z,0.77
2018-01-29T14:30:45.937Z,0.60
2018-01-29T14:33:13.386Z,0.70
2018-01-29T14:35:41.011Z,0.73
2018-01-29T14:38:08.421Z,0.60
2018-01-29T14:40:35.895Z,0.60
2018-01-29T14:43:04.113Z,0.53
2018-01-29T14:45:31.565Z,0.70
2018-01-29T14:47:59.141Z,0.50
2018-01-29T14:50:26.593Z,0.57
2018-01-29T14:52:54.058Z,0.70
2018-01-29T14:55:21.501Z,0.60
2018-01-29T14:57:48.957Z,0.87
2018-01-29T15:00:16.413Z,0.90
2018-01-29T15:02:43.892Z,0.60
2018-01-29T15:05:11.333Z,0.80
2018-01-29T15:07:38.803Z,0.70
2018-01-29T15:10:06.255Z,0.77
2018-01-29T15:12:33.712Z,0.53
2018-01-29T15:15:01.246Z,0.60
2018-01-29T15:17:28.698Z,0.60
2018-01-29T15:19:56.149Z,0.93
2018-01-29T15:22:23.602Z,0.70
2018-01-29T15:24:51.059Z,0.87
2018-01-29T15:27:18.517Z,0.70
2018-01-29T15:29:45.965Z,1.07
2018-01-29T15:32:13.415Z,0.70
2018-01-29T15:34:41.638Z,0.60
2018-01-29T15:37:09.148Z,0.80
2018-01-29T15:39:37.357Z,0.60
2018-01-29T15:42:04.805Z,0.90
2018-01-29T15:44:32.261Z,0.80
2018-01-29T15:46:59.717Z,0.97
2018-01-29T15:49:27.285Z,0.80
2018-01-29T15:51:54.742Z,0.63
2018-01-29T15:54:22.201Z,0.50
2018-01-29T15:56:49.654Z,0.70
2018-01-29T15:59:17.135Z,1.10
2018-01-29T16:01:44.800Z,0.90
2018-01-29T16:04:12.206Z,0.60
2018-01-29T16:06:39.658Z,1.30
2018-01-29T16:09:07.114Z,0.70
2018-01-29T16:11:34.561Z,0.80
2018-01-29T16:14:02.902Z,1.00
2018-01-29T16:16:30.357Z,0.90
2018-01-29T16:18:57.817Z,0.83
2018-01-29T16:21:25.269Z,1.10
2018-01-29T16:23:52.729Z,1.70
2018-01-29T16:26:20.244Z,2.10
2018-01-29T16:28:47.696Z,1.83
2018-01-29T16:31:15.150Z,1.63
2018-01-29T16:33:42.608Z,2.07
2018-01-29T16:36:10.053Z,1.40
2018-01-29T16:38:37.731Z,2.00
2018-01-29T16:41:05.169Z,1.37
2018-01-29T16:43:33.409Z,0.93
2018-01-29T16:46:00.871Z,1.03
2018-01-29T16:48:28.317Z,1.10
2018-01-29T16:50:55.840Z,1.10
2018-01-29T16:53:23.281Z,0.90
2018-01-29T16:55:50.739Z,1.10
2018-01-29T16:58:18.185Z,1.10
2018-01-29T17:00:46.405Z,1.40
2018-01-29T17:03:13.886Z,0.90
2018-01-29T17:05:41.346Z,1.10
2018-01-29T17:08:08.797Z,1.60
2018-01-29T17:10:36.343Z,1.27
2018-01-29T17:13:04.769Z,1.10
2018-01-29T17:15:32.992Z,1.43
2018-01-29T17:18:00.445Z,2.90
2018-01-29T17:20:27.901Z,1.20
2018-01-29T17:22:55.399Z,1.30
2018-01-29T17:25:23.032Z,1.00
2018-01-29T17:27:50.511Z,1.07
2018-01-29T17:30:17.962Z,1.00
2018-01-29T17:32:45.414Z,1.30
2018-01-29T17:35:12.873Z,2.40
2018-01-29T17:37:40.325Z,1.17
2018-01-29T17:40:07.829Z,1.00
2018-01-29T17:42:35.289Z,1.00
2018-01-29T17:45:02.745Z,1.83
2018-01-29T17:47:30.189Z,1.40
2018-01-29T17:49:57.694Z,1.70
2018-01-29T17:52:25.133Z,1.07
2018-01-29T17:54:52.593Z,1.20
2018-01-29T17:57:20.048Z,1.60
2018-01-29T17:59:47.538Z,1.30
2018-01-29T18:02:14.972Z,2.20
2018-01-29T18:04:42.433Z,2.03
2018-01-29T18:07:09.885Z,1.17
2018-01-29T18:09:37.392Z,1.07
2018-01-29T18:12:05.609Z,1.13
2018-01-29T18:14:33.058Z,0.97
2018-01-29T18:17:00.663Z,1.37
2018-01-29T18:19:28.122Z,1.53
2018-01-29T18:21:55.582Z,1.53
2018-01-29T18:24:23.822Z,0.93
2018-01-29T18:26:51.280Z,0.80
2018-01-29T18:29:18.742Z,1.10
2018-01-29T18:31:46.242Z,0.83
2018-01-29T18:34:14.473Z,1.20
2018-01-29T18:36:42.076Z,0.93
2018-01-29T18:39:10.296Z,1.30
2018-01-29T18:41:37.791Z,1.00
2018-01-29T18:44:05.281Z,1.13
2018-01-29T18:46:32.728Z,1.10
2018-01-29T18:49:00.942Z,1.10
2018-01-29T18:51:28.448Z,1.00
2018-01-29T18:53:55.880Z,1.07
2018-01-29T18:56:23.342Z,0.83
2018-01-29T18:58:50.785Z,0.50
2018-01-29T19:01:18.353Z,0.83
2018-01-29T19:03:45.831Z,0.77
2018-01-29T19:06:13.343Z,0.70
2018-01-29T19:08:40.800Z,0.70
2018-01-29T19:11:08.256Z,0.70
2018-01-29T19:13:35.788Z,0.60
2018-01-29T19:16:03.285Z,0.70
2018-01-29T19:18:30.731Z,0.70
2018-01-29T19:20:58.240Z,0.50
2018-01-29T19:23:26.448Z,0.50
2018-01-29T19:25:53.999Z,0.83
2018-01-29T19:28:21.454Z,0.87
2018-01-29T19:30:48.900Z,0.77
2018-01-29T19:33:16.412Z,0.60
2018-01-29T19:35:43.946Z,0.63
2018-01-29T19:38:11.509Z,0.70
2018-01-29T19:40:39.000Z,0.60
2018-01-29T19:43:06.505Z,1.47
2018-01-29T19:45:33.944Z,0.40
2018-01-29T19:48:01.457Z,0.60
2018-01-29T19:50:29.076Z,0.60
2018-01-29T19:52:56.562Z,1.00
2018-01-29T19:55:24.773Z,0.40
2018-01-29T19:57:53.065Z,0.43
2018-01-29T20:00:21.317Z,0.60
2018-01-29T20:02:49.595Z,0.43
2018-01-29T20:05:17.032Z,0.50
2018-01-29T20:07:44.546Z,0.60
2018-01-29T20:10:12.022Z,0.80
2018-01-29T20:12:39.474Z,0.47
2018-01-29T20:15:07.005Z,0.70
2018-01-29T20:17:35.256Z,0.50
2018-01-29T20:20:02.750Z,0.70
2018-01-29T20:22:30.225Z,0.60
2018-01-29T20:24:57.729Z,0.70
2018-01-29T20:27:25.211Z,1.43
2018-01-29T20:29:53.518Z,0.60
2018-01-29T20:32:20.995Z,0.67
2018-01-29T20:34:48.488Z,0.80
2018-01-29T20:37:16.738Z,0.90
2018-01-29T20:39:44.182Z,0.90
2018-01-29T20:42:11.768Z,0.70
2018-01-29T20:44:40.031Z,0.70
2018-01-29T20:47:07.520Z,1.00
2018-01-29T20:49:35.903Z,1.20
2018-01-29T20:52:04.153Z,0.90
2018-01-29T20:54:31.679Z,0.67
2018-01-29T20:56:59.165Z,0.83
2018-01-29T20:59:26.608Z,0.70
2018-01-29T21:01:54.201Z,1.03
2018-01-29T21:04:22.434Z,2.50
2018-01-29T21:06:49.934Z,0.93
2018-01-29T21:09:18.288Z,0.87
2018-01-29T21:11:45.725Z,0.80
2018-01-29T21:14:13.362Z,0.70
2018-01-29T21:16:40.797Z,0.70
2018-01-29T21:19:08.301Z,0.80
2018-01-29T21:21:35.785Z,0.87
2018-01-29T21:24:03.271Z,0.73
2018-01-29T21:26:31.487Z,1.10
2018-01-29T21:28:58.953Z,0.80
2018-01-29T21:31:26.400Z,0.57
2018-01-29T21:33:53.964Z,0.60
2018-01-29T21:36:21.455Z,0.50
2018-01-29T21:38:49.716Z,0.50
2018-01-29T21:41:17.173Z,0.53
2018-01-29T21:43:44.664Z,0.50
2018-01-29T21:46:12.928Z,0.70
2018-01-29T21:48:41.133Z,0.40
2018-01-29T21:51:08.638Z,0.40
2018-01-29T21:53:36.120Z,0.50
2018-01-29T21:56:03.576Z,0.40
2018-01-29T21:58:31.029Z,0.50
2018-01-29T22:00:59.245Z,0.83
2018-01-29T22:03:26.690Z,1.00
2018-01-29T22:05:54.157Z,0.50
2018-01-29T22:08:21.689Z,0.90
2018-01-29T22:10:49.106Z,0.70
2018-01-29T22:13:16.561Z,0.70
2018-01-29T22:15:44.027Z,0.83
2018-01-29T22:18:11.468Z,0.60
2018-01-29T22:20:38.929Z,0.60
2018-01-29T22:23:06.454Z,0.70
2018-01-29T22:25:33.901Z,0.80
2018-01-29T22:28:01.353Z,0.80
2018-01-29T22:30:28.850Z,0.47
2018-01-29T22:32:56.289Z,0.60
2018-01-29T22:35:23.745Z,0.70
2018-01-29T22:37:51.202Z,0.70
2018-01-29T22:40:18.695Z,0.70
2018-01-29T22:42:46.187Z,0.50
2018-01-29T22:45:13.683Z,0.60
2018-01-29T22:47:41.221Z,0.50
2018-01-29T22:50:08.711Z,0.70
2018-01-29T22:52:36.185Z,0.80
2018-01-29T22:55:04.413Z,0.50
2018-01-29T22:57:34.195Z,0.60
2018-01-29T23:00:01.724Z,0.53
2018-01-29T23:02:29.196Z,0.70
2018-01-29T23:04:57.439Z,0.50
2018-01-29T23:07:24.885Z,0.50
2018-01-29T23:09:52.380Z,0.77
2018-01-29T23:12:19.869Z,0.90
2018-01-29T23:14:47.495Z,0.57
2018-01-29T23:17:14.937Z,0.50
2018-01-29T23:19:42.414Z,0.80
2018-01-29T23:22:10.680Z,0.60
2018-01-29T23:24:38.117Z,0.50
2018-01-29T23:27:05.653Z,0.43
2018-01-29T23:29:33.105Z,0.50
2018-01-29T23:32:00.561Z,0.70
2018-01-29T23:34:28.010Z,0.70
2018-01-29T23:36:55.461Z,0.60
2018-01-29T23:39:22.988Z,0.60
2018-01-29T23:41:51.192Z,0.70
2018-01-29T23:44:18.632Z,0.60
2018-01-29T23:46:46.090Z,0.50
2018-01-29T23:49:13.541Z,0.63
2018-01-29T23:51:41.085Z,0.77
2018-01-29T23:54:09.305Z,0.70
2018-01-29T23:56:36.754Z,0.40
2018-01-29T23:59:04.218Z,0.70
